Barbarossa — ZDFA4 — position and weather

sailwx.info

Track history (hours):
 
Tides and Currents Weather Stations Pressure Air Temp Water Temp Dewpoint Dewpoint Depression Visibility Wind Speed Wind Dir Waves Ship Positions

Barbarossa

Last reported at 2015-Aug-29 12:33 UTC. Time now 2015-Aug-29 12:45 UTC.
Position N 57°56' E 012°04'.

Length 83 m; draft 3.6 m.

Type: Ship. MMSI: 236029000.

Date/timePositionNaut miles runAvg speedWind from/ knotsBaromVisibWave heightAir tempDewpointWater temp
2015-Aug-29 12:33N 57°56' E 012°04'9 8.9
2015-Aug-29 11:33N 58°05' E 012°09'5 5.4
2015-Aug-29 10:33N 58°10' E 012°07'7 7.2
2015-Aug-29 09:33N 58°16' E 012°15'1 0.7
2015-Aug-29 08:33N 58°16' E 012°16'5 4.8
2015-Aug-29 07:33N 58°20' E 012°21'4 3.6
2015-Aug-29 06:33N 58°24' E 012°19'5 4.5
2015-Aug-29 05:33N 58°27' E 012°25'8 7.8
2015-Aug-29 04:33N 58°33' E 012°35'  
2015-Aug-23 12:33N 58°35' E 012°39'1110.7
2015-Aug-23 11:33N 58°27' E 012°25'6 6.2
2015-Aug-23 10:33N 58°21' E 012°20'4 3.7
2015-Aug-23 09:33N 58°18' E 012°18'2 2.3
2015-Aug-23 08:33N 58°16' E 012°15'0 0.2
2015-Aug-23 07:33N 58°16' E 012°15'8 7.7
2015-Aug-23 06:33N 58°09' E 012°08'1 1.1
2015-Aug-23 05:33N 58°08' E 012°07'3 2.7
2015-Aug-23 04:33N 58°06' E 012°09'8 7.6
2015-Aug-23 03:33N 57°58' E 012°08'8 7.9
2015-Aug-23 02:33N 57°51' E 012°00'6 6.1
2015-Aug-23 01:33N 57°45' E 012°00'6 6.2
2015-Aug-23 00:33N 57°41' E 011°51'8 7.6
2015-Aug-22 23:33N 57°36' E 011°41'0 0.1
2015-Aug-22 22:32N 57°36' E 011°41'0 0.0
2015-Aug-22 21:32N 57°36' E 011°41'0 0.0
2015-Aug-22 20:31N 57°36' E 011°41'0 0.0
2015-Aug-22 19:31N 57°36' E 011°41'0 0.0
2015-Aug-22 18:33N 57°36' E 011°41'0 0.0
2015-Aug-22 17:33N 57°36' E 011°41'0 0.0
2015-Aug-22 16:33N 57°36' E 011°41'0 0.0
2015-Aug-22 15:32N 57°36' E 011°41'0 0.0
2015-Aug-22 14:32N 57°36' E 011°41'0 0.1
2015-Aug-22 13:31N 57°36' E 011°41'4 4.1
2015-Aug-22 12:33N 57°32' E 011°38'1010.4
2015-Aug-22 11:33N 57°22' E 011°38'1110.7
2015-Aug-22 10:33N 57°11' E 011°38'1110.8
2015-Aug-22 09:34N 57°01' E 011°44'1111.1
2015-Aug-22 08:33N 56°50' E 011°51'10 9.6
2015-Aug-22 07:33N 56°41' E 011°56'9 8.8
2015-Aug-22 06:33N 56°33' E 011°59'9 8.8
2015-Aug-22 05:33N 56°24' E 012°02'8 8.5
2015-Aug-22 04:34N 56°16' E 012°09'9 9.2
2015-Aug-22 03:33N 56°11' E 012°23'1110.7
2015-Aug-22 02:33N 56°04' E 012°38'1010.5
2015-Aug-22 01:34N 55°55' E 012°45'1010.3
2015-Aug-22 00:33N 55°45' E 012°42'1111.2
2015-Aug-21 23:33N 55°33' E 012°42'1111.1
2015-Aug-21 22:33N 55°22' E 012°41'10 9.6
2015-Aug-21 21:33N 55°16' E 012°53'1111.3
2015-Aug-21 20:33N 55°15' E 013°13'1211.7
2015-Aug-21 19:33N 55°15' E 013°34'1111.2
2015-Aug-21 18:33N 55°14' E 013°53'1211.7
2015-Aug-21 17:33N 55°13' E 014°14'1111.1
2015-Aug-21 16:33N 55°21' E 014°27'1111.1
2015-Aug-21 15:33N 55°29' E 014°42'1010.3
2015-Aug-21 14:33N 55°34' E 014°57'10 9.7
2015-Aug-21 13:33N 55°39' E 015°12'10 9.8
2015-Aug-21 12:33N 55°44' E 015°27'1010.2
2015-Aug-21 11:33N 55°49' E 015°43'1010.4
2015-Aug-21 10:33N 55°54' E 015°59'1010.2
2015-Aug-21 09:33N 55°59' E 016°15'1010.2
2015-Aug-21 08:33N 56°05' E 016°31'2210.3
2015-Aug-21 06:27N 56°17' E 017°03'1910.2
2015-Aug-21 04:33N 56°28' E 017°31'3610.3
2015-Aug-21 01:04N 56°50' E 018°23'710.3
2015-Aug-21 00:23N 56°54' E 018°34'1110.4
2015-Aug-20 23:18N 56°59' E 018°53'  
Track history (hours):
 
Tides and Currents Weather Stations Pressure Air Temp Water Temp Dewpoint Dewpoint Depression Visibility Wind Speed Wind Dir Waves Ship Positions

Barbarossa

Last reported at 2015-Aug-29 12:33 UTC. Time now 2015-Aug-29 12:45 UTC.
Position N 57°56' E 012°04'.

Length 83 m; draft 3.6 m.

Type: Ship. MMSI: 236029000.

Date/timePositionNaut miles runAvg speedWind from/ knotsBaromVisibWave heightAir tempDewpointWater temp
2015-Aug-29 12:33N 57°56' E 012°04'9 8.9
2015-Aug-29 11:33N 58°05' E 012°09'5 5.4
2015-Aug-29 10:33N 58°10' E 012°07'7 7.2
2015-Aug-29 09:33N 58°16' E 012°15'1 0.7
2015-Aug-29 08:33N 58°16' E 012°16'5 4.8
2015-Aug-29 07:33N 58°20' E 012°21'4 3.6
2015-Aug-29 06:33N 58°24' E 012°19'5 4.5
2015-Aug-29 05:33N 58°27' E 012°25'8 7.8
2015-Aug-29 04:33N 58°33' E 012°35'  
2015-Aug-23 12:33N 58°35' E 012°39'1110.7
2015-Aug-23 11:33N 58°27' E 012°25'6 6.2
2015-Aug-23 10:33N 58°21' E 012°20'4 3.7
2015-Aug-23 09:33N 58°18' E 012°18'2 2.3
2015-Aug-23 08:33N 58°16' E 012°15'0 0.2
2015-Aug-23 07:33N 58°16' E 012°15'8 7.7
2015-Aug-23 06:33N 58°09' E 012°08'1 1.1
2015-Aug-23 05:33N 58°08' E 012°07'3 2.7
2015-Aug-23 04:33N 58°06' E 012°09'8 7.6
2015-Aug-23 03:33N 57°58' E 012°08'8 7.9
2015-Aug-23 02:33N 57°51' E 012°00'6 6.1
2015-Aug-23 01:33N 57°45' E 012°00'6 6.2
2015-Aug-23 00:33N 57°41' E 011°51'8 7.6
2015-Aug-22 23:33N 57°36' E 011°41'0 0.1
2015-Aug-22 22:32N 57°36' E 011°41'0 0.0
2015-Aug-22 21:32N 57°36' E 011°41'0 0.0
2015-Aug-22 20:31N 57°36' E 011°41'0 0.0
2015-Aug-22 19:31N 57°36' E 011°41'0 0.0
2015-Aug-22 18:33N 57°36' E 011°41'0 0.0
2015-Aug-22 17:33N 57°36' E 011°41'0 0.0
2015-Aug-22 16:33N 57°36' E 011°41'0 0.0
2015-Aug-22 15:32N 57°36' E 011°41'0 0.0
2015-Aug-22 14:32N 57°36' E 011°41'0 0.1
2015-Aug-22 13:31N 57°36' E 011°41'4 4.1
2015-Aug-22 12:33N 57°32' E 011°38'1010.4
2015-Aug-22 11:33N 57°22' E 011°38'1110.7
2015-Aug-22 10:33N 57°11' E 011°38'1110.8
2015-Aug-22 09:34N 57°01' E 011°44'1111.1
2015-Aug-22 08:33N 56°50' E 011°51'10 9.6
2015-Aug-22 07:33N 56°41' E 011°56'9 8.8
2015-Aug-22 06:33N 56°33' E 011°59'9 8.8
2015-Aug-22 05:33N 56°24' E 012°02'8 8.5
2015-Aug-22 04:34N 56°16' E 012°09'9 9.2
2015-Aug-22 03:33N 56°11' E 012°23'1110.7
2015-Aug-22 02:33N 56°04' E 012°38'1010.5
2015-Aug-22 01:34N 55°55' E 012°45'1010.3
2015-Aug-22 00:33N 55°45' E 012°42'1111.2
2015-Aug-21 23:33N 55°33' E 012°42'1111.1
2015-Aug-21 22:33N 55°22' E 012°41'10 9.6
2015-Aug-21 21:33N 55°16' E 012°53'1111.3
2015-Aug-21 20:33N 55°15' E 013°13'1211.7
2015-Aug-21 19:33N 55°15' E 013°34'1111.2
2015-Aug-21 18:33N 55°14' E 013°53'1211.7
2015-Aug-21 17:33N 55°13' E 014°14'1111.1
2015-Aug-21 16:33N 55°21' E 014°27'1111.1
2015-Aug-21 15:33N 55°29' E 014°42'1010.3
2015-Aug-21 14:33N 55°34' E 014°57'10 9.7
2015-Aug-21 13:33N 55°39' E 015°12'10 9.8
2015-Aug-21 12:33N 55°44' E 015°27'1010.2
2015-Aug-21 11:33N 55°49' E 015°43'1010.4
2015-Aug-21 10:33N 55°54' E 015°59'1010.2
2015-Aug-21 09:33N 55°59' E 016°15'1010.2
2015-Aug-21 08:33N 56°05' E 016°31'2210.3
2015-Aug-21 06:27N 56°17' E 017°03'1910.2
2015-Aug-21 04:33N 56°28' E 017°31'3610.3
2015-Aug-21 01:04N 56°50' E 018°23'710.3
2015-Aug-21 00:23N 56°54' E 018°34'1110.4
2015-Aug-20 23:18N 56°59' E 018°53'  

Dump ship's entire track history